Terminal Aerodrome Forecast
Issued by NWS Denver/Boulder, CO

Home | Current Version | Previous Version | Text Only | Print | Product List | Glossary On
Versions: 1 2 3 4 5 6 7 8 9 10 11 12 13 14 15 16 17 18 19 20 21 22 23 24 25 26 27 28 29 30 31 32 33 34 35 36 37 38 39 40 41 42 43 44 45 46 47 48 49 50
000
FTUS45 KBOU 102147 AAB
TAFDEN
TAF AMD
KDEN 102147Z 1022/1124 13010G16KT P6SM SCT120 SCT220
     FM102300 16014KT P6SM VCTS SCT100CB BKN180
      TEMPO 1023/1101 VRB20G30KT
     FM110200 30012KT P6SM FEW080 SCT110 BKN200
     FM110400 25009KT P6SM FEW120 SCT200
     FM111500 35008KT P6SM SCT200
     FM112100 05009KT P6SM VCTS SCT070CB BKN120
      TEMPO 1121/1124 VRB15G30KT -TSRA BKN060CB=

USA.gov is the U.S. government's official web portal to all federal, state and local government web resources and services.